createdAt,value
2018-10-11T00:01:10.647Z,99.90
2018-10-11T00:03:40.018Z,99.90
2018-10-11T00:06:09.426Z,99.90
2018-10-11T00:08:38.865Z,99.90
2018-10-11T00:11:08.439Z,99.90
2018-10-11T00:13:37.729Z,99.90
2018-10-11T00:16:07.317Z,99.90
2018-10-11T00:18:36.653Z,99.90
2018-10-11T00:21:05.976Z,99.90
2018-10-11T00:23:35.423Z,99.90
2018-10-11T00:26:04.788Z,99.90
2018-10-11T00:28:34.260Z,99.90
2018-10-11T00:31:03.661Z,99.90
2018-10-11T00:33:33.218Z,99.90
2018-10-11T00:36:02.502Z,99.90
2018-10-11T00:38:31.844Z,99.90
2018-10-11T00:41:01.138Z,99.90
2018-10-11T00:43:30.446Z,99.90
2018-10-11T00:45:59.807Z,99.90
2018-10-11T00:48:29.170Z,99.90
2018-10-11T00:50:58.479Z,99.90
2018-10-11T00:53:27.780Z,99.90
2018-10-11T00:55:57.123Z,99.90
2018-10-11T00:58:26.527Z,99.90
2018-10-11T01:00:56.006Z,99.90
2018-10-11T01:03:25.311Z,99.90
2018-10-11T01:05:54.714Z,99.90
2018-10-11T01:08:26.874Z,99.90
2018-10-11T01:10:56.179Z,99.90
2018-10-11T01:13:25.687Z,99.90
2018-10-11T01:15:55.047Z,99.90
2018-10-11T01:18:24.463Z,99.90
2018-10-11T01:20:54.095Z,99.90
2018-10-11T01:23:23.483Z,99.90
2018-10-11T01:25:52.847Z,99.90
2018-10-11T01:28:22.163Z,99.90
2018-10-11T01:30:56.840Z,99.90
2018-10-11T01:33:26.231Z,99.90
2018-10-11T01:35:55.529Z,99.90
2018-10-11T01:38:24.888Z,99.90
2018-10-11T01:40:54.356Z,99.90
2018-10-11T01:43:23.680Z,99.90
2018-10-11T01:45:53.224Z,99.90
2018-10-11T01:48:22.576Z,99.90
2018-10-11T01:50:51.900Z,99.90
2018-10-11T01:53:21.195Z,99.90
2018-10-11T01:55:50.553Z,99.90
2018-10-11T01:58:19.850Z,99.90
2018-10-11T02:00:49.167Z,99.90
2018-10-11T02:03:18.508Z,99.90
2018-10-11T02:05:47.847Z,99.90
2018-10-11T02:08:17.164Z,99.90
2018-10-11T02:10:46.500Z,99.90
2018-10-11T02:13:15.943Z,99.90
2018-10-11T02:15:45.251Z,99.90
2018-10-11T02:18:14.541Z,99.90
2018-10-11T02:20:43.860Z,99.90
2018-10-11T02:23:13.378Z,99.90
2018-10-11T02:25:42.719Z,99.90
2018-10-11T02:28:12.039Z,99.90
2018-10-11T02:30:41.554Z,99.90
2018-10-11T02:33:10.914Z,99.90
2018-10-11T02:35:40.288Z,99.90
2018-10-11T02:38:09.577Z,99.90
2018-10-11T02:40:38.924Z,99.90
2018-10-11T02:43:08.252Z,99.90
2018-10-11T02:45:37.577Z,99.90
2018-10-11T02:48:07.535Z,99.90
2018-10-11T02:50:36.911Z,99.90
2018-10-11T02:53:06.349Z,99.90
2018-10-11T02:55:35.910Z,99.90
2018-10-11T02:58:16.456Z,99.90
2018-10-11T03:00:45.960Z,99.90
2018-10-11T03:03:15.664Z,99.90
2018-10-11T03:05:46.136Z,99.90
2018-10-11T03:08:18.658Z,99.90
2018-10-11T03:10:48.639Z,99.90
2018-10-11T03:13:18.203Z,99.90
2018-10-11T03:15:48.189Z,99.90
2018-10-11T03:18:17.677Z,99.90
2018-10-11T03:20:47.012Z,99.90
2018-10-11T03:23:16.492Z,99.90
2018-10-11T03:25:46.659Z,99.90
2018-10-11T03:28:17.224Z,99.90
2018-10-11T03:30:46.615Z,99.90
2018-10-11T03:33:16.049Z,99.90
2018-10-11T03:35:45.607Z,99.90
2018-10-11T03:38:15.098Z,99.90
2018-10-11T03:40:44.463Z,99.90
2018-10-11T03:43:13.905Z,99.90
2018-10-11T03:45:43.229Z,99.90
2018-10-11T03:48:12.535Z,99.90
2018-10-11T03:50:41.855Z,99.90
2018-10-11T03:53:11.191Z,99.90
2018-10-11T03:55:40.487Z,99.90
2018-10-11T03:58:09.791Z,99.90
2018-10-11T04:00:39.185Z,99.90
2018-10-11T04:03:08.511Z,99.90
2018-10-11T04:05:37.902Z,99.90
2018-10-11T04:08:07.197Z,99.90
2018-10-11T04:10:36.509Z,99.90
2018-10-11T04:13:05.853Z,99.90
2018-10-11T04:15:35.291Z,99.90
2018-10-11T04:18:04.609Z,99.90
2018-10-11T04:20:34.622Z,99.90
2018-10-11T04:23:03.955Z,99.90
2018-10-11T04:25:33.263Z,99.90
2018-10-11T04:28:02.590Z,99.90
2018-10-11T04:30:31.919Z,99.90
2018-10-11T04:33:01.227Z,99.90
2018-10-11T04:35:30.584Z,99.90
2018-10-11T04:38:00.003Z,99.90
2018-10-11T04:40:29.532Z,99.90
2018-10-11T04:42:58.976Z,99.90
2018-10-11T04:45:28.310Z,99.90
2018-10-11T04:47:57.651Z,99.90
2018-10-11T04:50:27.054Z,99.90
2018-10-11T04:52:56.401Z,99.90
2018-10-11T04:55:25.990Z,99.90
2018-10-11T04:57:55.687Z,99.90
2018-10-11T05:00:25.603Z,99.90
2018-10-11T05:02:54.882Z,99.90
2018-10-11T05:05:24.278Z,99.90
2018-10-11T05:07:53.609Z,99.90
2018-10-11T05:10:23.081Z,99.90
2018-10-11T05:12:52.661Z,99.90
2018-10-11T05:15:22.285Z,99.90
2018-10-11T05:17:51.795Z,99.90
2018-10-11T05:20:21.189Z,99.90
2018-10-11T05:22:50.645Z,99.90
2018-10-11T05:25:20.390Z,99.90
2018-10-11T05:27:49.809Z,99.90
2018-10-11T05:30:19.249Z,99.90
2018-10-11T05:32:48.733Z,99.90
2018-10-11T05:35:18.013Z,99.90
2018-10-11T05:37:47.334Z,99.90
2018-10-11T05:40:16.755Z,99.90
2018-10-11T05:42:46.157Z,99.90
2018-10-11T05:45:18.627Z,99.90
2018-10-11T05:47:48.227Z,99.90
2018-10-11T05:50:17.936Z,99.90
2018-10-11T05:52:47.442Z,99.90
2018-10-11T05:55:16.963Z,99.90
2018-10-11T05:57:46.356Z,99.90
2018-10-11T06:00:15.754Z,99.90
2018-10-11T06:02:52.421Z,99.90
2018-10-11T06:05:21.797Z,99.90
2018-10-11T06:07:51.196Z,99.90
2018-10-11T06:10:20.655Z,99.90
2018-10-11T06:12:50.160Z,99.90
2018-10-11T06:15:19.520Z,99.90
2018-10-11T06:17:48.993Z,99.90
2018-10-11T06:20:18.388Z,99.90
2018-10-11T06:22:47.968Z,99.90
2018-10-11T06:25:18.125Z,99.90
2018-10-11T06:27:47.573Z,99.90
2018-10-11T06:30:17.201Z,99.90
2018-10-11T06:32:46.847Z,99.90
2018-10-11T06:35:16.281Z,99.90
2018-10-11T06:37:46.015Z,99.90
2018-10-11T06:40:15.423Z,99.90
2018-10-11T06:42:45.683Z,99.90
2018-10-11T06:45:15.836Z,99.90
2018-10-11T06:47:48.471Z,99.90
2018-10-11T06:50:18.104Z,99.90
2018-10-11T06:52:48.328Z,99.90
2018-10-11T06:55:17.732Z,99.90
2018-10-11T06:57:47.068Z,99.90
2018-10-11T07:00:16.408Z,99.90
2018-10-11T07:02:45.766Z,99.90
2018-10-11T07:05:15.119Z,99.90
2018-10-11T07:07:44.456Z,99.90
2018-10-11T07:10:13.817Z,99.90
2018-10-11T07:12:43.412Z,99.90
2018-10-11T07:15:12.796Z,99.90
2018-10-11T07:17:42.124Z,99.90
2018-10-11T07:20:11.460Z,99.90
2018-10-11T07:22:40.793Z,99.90
2018-10-11T07:25:10.114Z,99.90
2018-10-11T07:27:40.004Z,99.90
2018-10-11T07:30:09.606Z,99.90
2018-10-11T07:32:38.929Z,99.90
2018-10-11T07:35:08.455Z,99.90
2018-10-11T07:37:37.904Z,99.90
2018-10-11T07:40:07.652Z,99.90
2018-10-11T07:42:37.259Z,99.90
2018-10-11T07:45:06.688Z,99.90
2018-10-11T07:47:36.272Z,99.90
2018-10-11T07:50:06.031Z,99.90
2018-10-11T07:52:35.544Z,99.90
2018-10-11T07:55:05.037Z,99.90
2018-10-11T07:57:34.373Z,99.90
2018-10-11T08:00:04.460Z,99.90
2018-10-11T08:02:33.752Z,99.90
2018-10-11T08:05:03.102Z,99.90
2018-10-11T08:07:32.517Z,99.90
2018-10-11T08:10:01.868Z,99.90
2018-10-11T08:12:31.285Z,99.90
2018-10-11T08:15:00.617Z,99.90
2018-10-11T08:17:30.747Z,99.90
2018-10-11T08:19:59.926Z,99.90
2018-10-11T08:22:29.435Z,99.90
2018-10-11T08:24:59.383Z,99.90
2018-10-11T08:27:28.760Z,99.90
2018-10-11T08:29:58.398Z,99.90
2018-10-11T08:32:28.035Z,99.90
2018-10-11T08:34:57.762Z,99.90
2018-10-11T08:37:27.156Z,99.90
2018-10-11T08:39:56.490Z,99.90
2018-10-11T08:42:25.811Z,99.90
2018-10-11T08:44:55.199Z,99.90
2018-10-11T08:47:24.566Z,99.90
2018-10-11T08:49:53.931Z,99.90
2018-10-11T08:52:23.335Z,99.90
2018-10-11T08:54:53.451Z,99.90
2018-10-11T08:57:24.370Z,99.90
2018-10-11T08:59:53.350Z,99.90
2018-10-11T09:02:22.770Z,99.90
2018-10-11T09:04:52.156Z,99.90
2018-10-11T09:07:21.516Z,99.90
2018-10-11T09:09:53.685Z,99.90
2018-10-11T09:12:20.336Z,99.90
2018-10-11T09:14:49.661Z,99.90
2018-10-11T09:17:19.016Z,99.90
2018-10-11T09:19:48.573Z,99.90
2018-10-11T09:22:17.939Z,99.90
2018-10-11T09:24:47.291Z,99.90
2018-10-11T09:27:16.623Z,99.90
2018-10-11T09:29:45.980Z,99.90
2018-10-11T09:32:16.259Z,99.90
2018-10-11T09:34:45.672Z,99.90
2018-10-11T09:37:14.960Z,99.90
2018-10-11T09:39:44.302Z,99.90
2018-10-11T09:42:14.484Z,99.90
2018-10-11T09:44:43.900Z,99.90
2018-10-11T09:47:13.288Z,99.90
2018-10-11T09:49:42.654Z,99.90
2018-10-11T09:52:12.004Z,99.90
2018-10-11T09:54:41.381Z,99.90
2018-10-11T09:57:21.398Z,99.90
2018-10-11T09:59:50.782Z,99.90
2018-10-11T10:02:20.584Z,99.90
2018-10-11T10:04:51.358Z,99.90
2018-10-11T10:07:20.765Z,99.90
2018-10-11T10:09:50.196Z,99.90
2018-10-11T10:12:19.776Z,99.90
2018-10-11T10:14:49.819Z,99.90
2018-10-11T10:17:19.586Z,99.90
2018-10-11T10:19:49.023Z,99.90
2018-10-11T10:22:18.905Z,99.90
2018-10-11T10:24:48.276Z,99.90
2018-10-11T10:27:17.756Z,99.90
2018-10-11T10:29:47.213Z,99.90
2018-10-11T10:32:17.206Z,99.90
2018-10-11T10:34:47.759Z,99.90
2018-10-11T10:37:17.158Z,99.90
2018-10-11T10:39:47.266Z,99.90
2018-10-11T10:42:18.368Z,99.90
2018-10-11T10:44:48.391Z,99.90
2018-10-11T10:47:17.785Z,99.90
2018-10-11T10:49:47.210Z,99.90
2018-10-11T10:52:17.068Z,98.30
2018-10-11T10:54:46.578Z,98.50
2018-10-11T10:57:16.904Z,99.90
2018-10-11T10:59:46.522Z,98.40
2018-10-11T11:02:15.851Z,94.40
2018-10-11T11:04:45.412Z,99.10
2018-10-11T11:07:14.813Z,99.90
2018-10-11T11:09:44.422Z,99.90
2018-10-11T11:12:13.886Z,99.90
2018-10-11T11:14:43.252Z,99.90
2018-10-11T11:17:12.563Z,99.90
2018-10-11T11:19:43.555Z,96.60
2018-10-11T11:22:13.050Z,95.90
2018-10-11T11:24:43.255Z,94.10
2018-10-11T11:27:12.588Z,97.70
2018-10-11T11:29:41.933Z,98.20
2018-10-11T11:32:11.256Z,96.70
2018-10-11T11:34:40.572Z,99.90
2018-10-11T11:37:09.930Z,99.90
2018-10-11T11:39:39.307Z,98.00
2018-10-11T11:42:09.187Z,96.10
2018-10-11T11:44:39.432Z,99.80
2018-10-11T11:47:09.417Z,98.80
2018-10-11T11:49:44.733Z,98.70
2018-10-11T11:52:19.726Z,98.40
2018-10-11T11:54:51.957Z,96.90
2018-10-11T11:57:21.679Z,98.30
2018-10-11T11:59:52.017Z,98.00
2018-10-11T12:02:25.645Z,96.50
2018-10-11T12:04:55.579Z,93.80
2018-10-11T12:07:26.303Z,90.30
2018-10-11T12:10:05.556Z,90.10
2018-10-11T12:13:07.375Z,86.40
2018-10-11T12:15:37.774Z,86.30
2018-10-11T12:18:08.824Z,90.80
2018-10-11T12:20:40.215Z,88.60
2018-10-11T12:23:10.761Z,92.00
2018-10-11T12:25:40.433Z,93.90
2018-10-11T12:28:10.095Z,94.60
2018-10-11T12:30:39.402Z,92.20
2018-10-11T12:33:09.054Z,91.60
2018-10-11T12:35:38.350Z,90.70
2018-10-11T12:38:07.768Z,89.10
2018-10-11T12:40:37.126Z,89.00
2018-10-11T12:43:06.492Z,88.30
2018-10-11T12:45:36.225Z,84.00
2018-10-11T12:48:05.255Z,86.00
2018-10-11T12:50:34.733Z,90.00
2018-10-11T12:53:04.145Z,89.20
2018-10-11T12:55:33.535Z,86.10
2018-10-11T12:58:03.759Z,87.10
2018-10-11T13:00:33.191Z,92.40
2018-10-11T13:03:02.613Z,87.30
2018-10-11T13:05:31.973Z,82.70
2018-10-11T13:08:01.420Z,82.50
2018-10-11T13:10:30.781Z,85.50
2018-10-11T13:13:09.351Z,89.40
2018-10-11T13:15:29.645Z,88.10
2018-10-11T13:17:59.121Z,88.50
2018-10-11T13:20:28.524Z,85.30
2018-10-11T13:22:58.000Z,89.10
2018-10-11T13:25:27.306Z,91.20
2018-10-11T13:27:56.625Z,92.40
2018-10-11T13:30:25.960Z,92.20
2018-10-11T13:32:56.284Z,92.40
2018-10-11T13:35:25.785Z,92.40
2018-10-11T13:37:55.836Z,92.10
2018-10-11T13:40:25.267Z,92.40
2018-10-11T13:42:54.706Z,92.40
2018-10-11T13:45:24.156Z,90.90
2018-10-11T13:47:53.589Z,92.20
2018-10-11T13:50:23.676Z,93.90
2018-10-11T13:52:53.048Z,95.10
2018-10-11T13:55:22.385Z,96.60
2018-10-11T13:57:51.717Z,96.30
2018-10-11T14:00:21.167Z,95.40
2018-10-11T14:02:50.541Z,93.20
2018-10-11T14:05:19.989Z,93.80
2018-10-11T14:07:49.316Z,93.10
2018-10-11T14:10:18.701Z,90.80
2018-10-11T14:12:48.074Z,89.60
2018-10-11T14:15:17.429Z,90.20
2018-10-11T14:17:46.775Z,90.60
2018-10-11T14:20:16.087Z,89.10
2018-10-11T14:22:45.435Z,91.90
2018-10-11T14:25:14.805Z,90.90
2018-10-11T14:27:44.224Z,90.40
2018-10-11T14:30:13.613Z,89.80
2018-10-11T14:32:42.940Z,91.90
2018-10-11T14:35:12.322Z,91.30
2018-10-11T14:37:42.351Z,92.50
2018-10-11T14:40:11.768Z,94.00
2018-10-11T14:42:41.681Z,94.70
2018-10-11T14:45:11.491Z,95.60
2018-10-11T14:47:40.972Z,97.50
2018-10-11T14:50:10.300Z,98.10
2018-10-11T14:52:39.800Z,98.40
2018-10-11T14:55:09.168Z,99.00
2018-10-11T14:57:38.546Z,99.20
2018-10-11T15:00:07.982Z,99.90
2018-10-11T15:02:37.395Z,99.90
2018-10-11T15:05:06.795Z,99.90
2018-10-11T15:07:36.162Z,99.90
2018-10-11T15:10:05.949Z,99.90
2018-10-11T15:12:35.537Z,99.90
2018-10-11T15:15:05.044Z,99.90
2018-10-11T15:17:34.334Z,99.90
2018-10-11T15:20:04.439Z,98.40
2018-10-11T15:22:33.813Z,98.20
2018-10-11T15:25:03.209Z,97.90
2018-10-11T15:27:32.575Z,96.80
2018-10-11T15:30:01.897Z,96.70
2018-10-11T15:32:31.368Z,98.30
2018-10-11T15:35:00.788Z,99.40
2018-10-11T15:37:30.976Z,99.40
2018-10-11T15:40:00.335Z,99.30
2018-10-11T15:42:29.714Z,99.90
2018-10-11T15:44:59.025Z,99.90
2018-10-11T15:47:28.346Z,99.90
2018-10-11T15:49:57.727Z,99.90
2018-10-11T15:52:27.119Z,99.90
2018-10-11T15:54:56.461Z,99.90
2018-10-11T15:57:26.636Z,99.90
2018-10-11T15:59:56.254Z,99.90
2018-10-11T16:02:25.546Z,99.90
2018-10-11T16:04:54.850Z,99.90
2018-10-11T16:07:24.238Z,99.90
2018-10-11T16:09:53.567Z,99.90
2018-10-11T16:12:23.000Z,99.90
2018-10-11T16:14:52.512Z,99.90
2018-10-11T16:17:21.915Z,99.90
2018-10-11T16:19:51.285Z,99.90
2018-10-11T16:22:21.834Z,99.90
2018-10-11T16:24:51.954Z,99.90
2018-10-11T16:27:21.335Z,99.90
2018-10-11T16:29:50.688Z,99.90
2018-10-11T16:32:20.279Z,99.90
2018-10-11T16:34:49.489Z,99.90
2018-10-11T16:37:18.813Z,99.90
2018-10-11T16:39:48.302Z,99.90
2018-10-11T16:42:17.683Z,99.90
2018-10-11T16:44:48.955Z,99.90
2018-10-11T16:47:18.322Z,99.90
2018-10-11T16:49:47.840Z,99.90
2018-10-11T16:52:17.111Z,99.90
2018-10-11T16:54:46.432Z,99.90
2018-10-11T16:57:16.551Z,99.90
2018-10-11T16:59:46.115Z,99.90
2018-10-11T17:02:15.492Z,99.90
2018-10-11T17:04:44.918Z,99.90
2018-10-11T17:07:14.412Z,99.90
2018-10-11T17:09:44.759Z,99.90
2018-10-11T17:12:14.035Z,99.90
2018-10-11T17:14:43.354Z,99.90
2018-10-11T17:17:12.696Z,99.90
2018-10-11T17:19:42.060Z,99.90
2018-10-11T17:22:11.426Z,99.90
2018-10-11T17:24:40.844Z,99.90
2018-10-11T17:27:10.180Z,99.90
2018-10-11T17:29:40.182Z,99.90
2018-10-11T17:32:09.494Z,99.90
2018-10-11T17:34:38.839Z,99.90
2018-10-11T17:37:08.202Z,99.90
2018-10-11T17:39:37.625Z,99.90
2018-10-11T17:42:07.045Z,99.90
2018-10-11T17:44:36.799Z,99.90
2018-10-11T17:47:06.675Z,99.90
2018-10-11T17:49:36.011Z,99.90
2018-10-11T17:52:05.405Z,99.90
2018-10-11T17:54:35.204Z,99.90
2018-10-11T17:57:04.588Z,99.90
2018-10-11T17:59:33.890Z,99.90
2018-10-11T18:02:04.369Z,99.90
2018-10-11T18:04:34.515Z,99.90
2018-10-11T18:07:03.915Z,99.90
2018-10-11T18:09:33.781Z,99.90
2018-10-11T18:12:03.125Z,99.90
2018-10-11T18:14:32.591Z,99.90
2018-10-11T18:17:02.069Z,99.90
2018-10-11T18:19:31.413Z,99.90
2018-10-11T18:22:00.741Z,99.90
2018-10-11T18:24:30.073Z,99.90
2018-10-11T18:26:59.421Z,99.90
2018-10-11T18:29:28.710Z,99.90
2018-10-11T18:31:58.221Z,99.90
2018-10-11T18:34:27.585Z,99.90
2018-10-11T18:36:56.981Z,99.90
2018-10-11T18:39:26.286Z,99.90
2018-10-11T18:41:56.229Z,99.90
2018-10-11T18:44:25.555Z,99.90
2018-10-11T18:46:55.233Z,99.90
2018-10-11T18:49:24.535Z,99.90
2018-10-11T18:51:54.243Z,99.90
2018-10-11T18:54:23.816Z,99.90
2018-10-11T18:56:53.140Z,99.90
2018-10-11T18:59:22.465Z,99.90
2018-10-11T19:01:51.834Z,99.90
2018-10-11T19:04:21.496Z,99.90
2018-10-11T19:06:50.809Z,99.90
2018-10-11T19:09:20.168Z,99.90
2018-10-11T19:11:49.514Z,99.90
2018-10-11T19:14:18.880Z,99.90
2018-10-11T19:16:48.228Z,99.90
2018-10-11T19:19:17.560Z,99.90
2018-10-11T19:21:46.981Z,99.90
2018-10-11T19:24:16.297Z,99.90
2018-10-11T19:26:45.631Z,99.90
2018-10-11T19:29:14.963Z,99.90
2018-10-11T19:31:44.278Z,99.90
2018-10-11T19:34:13.584Z,99.90
2018-10-11T19:36:43.017Z,99.90
2018-10-11T19:39:13.769Z,99.90
2018-10-11T19:41:43.096Z,99.90
2018-10-11T19:44:13.201Z,99.90
2018-10-11T19:46:42.535Z,99.90
2018-10-11T19:49:11.864Z,99.90
2018-10-11T19:51:41.241Z,99.90
2018-10-11T19:54:10.598Z,99.90
2018-10-11T19:56:39.954Z,99.90
2018-10-11T19:59:09.264Z,99.90
2018-10-11T20:01:38.904Z,99.90
2018-10-11T20:04:08.337Z,99.90
2018-10-11T20:06:37.700Z,99.90
2018-10-11T20:09:08.737Z,99.90
2018-10-11T20:11:38.301Z,99.90
2018-10-11T20:14:07.665Z,99.90
2018-10-11T20:16:37.810Z,99.90
2018-10-11T20:19:07.128Z,99.90
2018-10-11T20:21:37.259Z,99.90
2018-10-11T20:24:06.727Z,99.90
2018-10-11T20:26:36.135Z,99.90
2018-10-11T20:29:05.721Z,99.90
2018-10-11T20:31:35.041Z,99.90
2018-10-11T20:34:04.549Z,99.90
2018-10-11T20:36:33.925Z,99.90
2018-10-11T20:39:03.494Z,99.90
2018-10-11T20:41:32.829Z,99.90
2018-10-11T20:44:02.391Z,99.90
2018-10-11T20:46:31.827Z,99.90
2018-10-11T20:49:01.168Z,99.90
2018-10-11T20:51:31.069Z,99.90
2018-10-11T20:54:00.429Z,99.90
2018-10-11T20:56:29.809Z,99.90
2018-10-11T20:58:59.137Z,99.90
2018-10-11T21:01:28.477Z,99.90
2018-10-11T21:03:57.818Z,99.90
2018-10-11T21:06:27.161Z,99.90
2018-10-11T21:08:56.516Z,99.90
2018-10-11T21:11:25.863Z,99.90
2018-10-11T21:13:55.183Z,99.90
2018-10-11T21:16:24.565Z,99.90
2018-10-11T21:18:53.952Z,99.90
2018-10-11T21:21:23.400Z,99.90
2018-10-11T21:23:52.830Z,99.90
2018-10-11T21:26:22.138Z,99.90
2018-10-11T21:28:51.685Z,99.90
2018-10-11T21:31:21.010Z,99.90
2018-10-11T21:33:50.495Z,99.90
2018-10-11T21:36:19.905Z,99.90
2018-10-11T21:38:49.307Z,99.90
2018-10-11T21:41:18.674Z,99.90
2018-10-11T21:43:48.454Z,99.90
2018-10-11T21:46:17.834Z,99.90
2018-10-11T21:48:47.157Z,99.90
2018-10-11T21:51:16.976Z,99.90
2018-10-11T21:53:46.326Z,99.90
2018-10-11T21:56:15.679Z,99.90
2018-10-11T21:58:44.995Z,99.90
2018-10-11T22:01:19.773Z,99.90
2018-10-11T22:03:49.190Z,99.90
2018-10-11T22:06:18.646Z,99.90
2018-10-11T22:08:47.968Z,99.90
2018-10-11T22:11:17.294Z,99.90
2018-10-11T22:13:46.676Z,99.90
2018-10-11T22:16:16.008Z,99.90
2018-10-11T22:18:45.392Z,99.90
2018-10-11T22:21:14.797Z,99.90
2018-10-11T22:23:44.338Z,99.90
2018-10-11T22:26:13.687Z,99.90
2018-10-11T22:28:43.017Z,99.90
2018-10-11T22:31:13.513Z,99.90
2018-10-11T22:33:43.065Z,99.90
2018-10-11T22:36:12.995Z,99.90
2018-10-11T22:38:42.598Z,99.90
2018-10-11T22:41:12.478Z,99.90
2018-10-11T22:43:42.605Z,99.90
2018-10-11T22:46:12.956Z,99.90
2018-10-11T22:48:43.006Z,99.90
2018-10-11T22:51:12.660Z,99.90
2018-10-11T22:53:42.465Z,99.90
2018-10-11T22:56:11.773Z,99.90
2018-10-11T22:58:41.173Z,99.90
2018-10-11T23:01:10.493Z,99.90
2018-10-11T23:03:39.894Z,99.90
2018-10-11T23:06:09.429Z,99.90
2018-10-11T23:08:38.721Z,99.90
2018-10-11T23:11:08.641Z,99.90
2018-10-11T23:13:38.515Z,99.90
2018-10-11T23:16:08.359Z,99.90
2018-10-11T23:18:37.953Z,99.90
2018-10-11T23:21:07.292Z,99.90
2018-10-11T23:23:36.624Z,99.90
2018-10-11T23:26:06.905Z,99.90
2018-10-11T23:28:36.250Z,99.90
2018-10-11T23:31:05.558Z,99.90
2018-10-11T23:33:34.892Z,99.90
2018-10-11T23:36:04.283Z,99.90
2018-10-11T23:38:33.565Z,99.90
2018-10-11T23:41:02.884Z,99.90
2018-10-11T23:43:32.295Z,99.90
2018-10-11T23:46:01.382Z,99.90
2018-10-11T23:48:30.714Z,99.90
2018-10-11T23:51:00.028Z,99.90
2018-10-11T23:53:29.363Z,99.90
2018-10-11T23:55:58.748Z,99.90
2018-10-11T23:58:28.082Z,99.90
